Time;durP1;ratioP1;P1;durP2;ratioP2;P2;SDS_P1;SDS_P2;PMS_P1;PMS_P2;Temp;Humidity;BMP_temperature;BMP_pressure;BME280_temperature;BME280_humidity;BME280_pressure;Samples;Min_cycle;Max_cycle;Signal;HPM_P1;HPM_P2
2022/10/16 00:00:30;;;;;;;16.13;9.18;;;11.80;99.90;;;;;;5039298;28;20113;-68
2022/10/16 00:02:56;;;;;;;18.30;8.18;;;11.70;99.90;;;;;;5045861;28;20190;-68
2022/10/16 00:05:21;;;;;;;15.13;6.80;;;11.70;99.90;;;;;;5042605;28;20068;-68
2022/10/16 00:07:47;;;;;;;12.90;6.47;;;11.70;99.90;;;;;;5047407;28;20049;-68
2022/10/16 00:10:12;;;;;;;15.35;7.20;;;11.70;99.90;;;;;;5047357;28;20049;-69
2022/10/16 00:12:38;;;;;;;17.00;7.05;;;11.70;99.90;;;;;;5062661;28;20505;-68
2022/10/16 00:15:04;;;;;;;11.98;6.35;;;11.70;99.90;;;;;;5047663;28;20048;-68
2022/10/16 00:17:30;;;;;;;18.52;8.07;;;11.70;99.90;;;;;;5040960;28;20490;-68
2022/10/16 00:19:56;;;;;;;21.83;7.88;;;11.70;99.90;;;;;;5047390;28;20114;-68
2022/10/16 00:22:22;;;;;;;15.68;8.93;;;11.80;99.90;;;;;;5045601;28;20056;-68
2022/10/16 00:24:48;;;;;;;19.63;8.30;;;11.80;99.90;;;;;;5047384;28;20135;-68
2022/10/16 00:27:13;;;;;;;15.77;7.65;;;11.70;99.90;;;;;;5043876;28;20121;-68
2022/10/16 00:29:39;;;;;;;18.65;7.88;;;11.80;99.90;;;;;;5043394;28;20037;-68
2022/10/16 00:32:05;;;;;;;8.90;6.13;;;11.80;99.90;;;;;;5047284;28;20496;-68
2022/10/16 00:34:30;;;;;;;30.55;7.45;;;11.80;99.90;;;;;;5045921;28;20037;-68
2022/10/16 00:36:56;;;;;;;21.83;8.20;;;11.80;99.90;;;;;;5046264;28;20159;-68
2022/10/16 00:39:22;;;;;;;16.42;7.05;;;11.80;99.90;;;;;;5046787;28;20091;-68
2022/10/16 00:41:47;;;;;;;16.05;6.88;;;11.80;99.90;;;;;;5047179;28;20099;-68
2022/10/16 00:44:43;;;;;;;15.75;7.22;;;11.80;99.90;;;;;;5046607;28;20094;-68
2022/10/16 00:47:18;;;;;;;21.63;8.98;;;11.80;99.90;;;;;;5046111;28;20076;-68
2022/10/16 00:49:44;;;;;;;18.25;7.88;;;11.80;99.90;;;;;;5061247;28;20044;-68
2022/10/16 00:52:10;;;;;;;13.25;6.15;;;11.80;99.90;;;;;;5045891;28;20090;-68
2022/10/16 00:54:36;;;;;;;24.42;7.68;;;11.70;99.90;;;;;;5049524;28;20037;-68
2022/10/16 00:57:05;;;;;;;10.68;6.03;;;11.70;99.90;;;;;;5051205;28;20037;-68
2022/10/16 00:59:38;;;;;;;17.77;7.20;;;11.80;99.90;;;;;;5050513;28;20841;-68
2022/10/16 01:02:07;;;;;;;12.60;6.25;;;11.70;99.90;;;;;;5041986;28;20044;-68
2022/10/16 01:04:56;;;;;;;13.75;6.25;;;11.70;99.90;;;;;;5049297;28;20071;-69
2022/10/16 01:07:43;;;;;;;11.48;6.45;;;11.70;99.90;;;;;;5049482;28;20045;-68
2022/10/16 01:10:35;;;;;;;21.70;6.22;;;11.70;99.90;;;;;;5030676;28;20094;-68
2022/10/16 01:13:21;;;;;;;24.88;7.72;;;11.70;99.90;;;;;;5042974;28;20048;-68
2022/10/16 01:15:59;;;;;;;15.63;7.35;;;11.70;99.90;;;;;;5047643;28;20053;-69
2022/10/16 01:18:45;;;;;;;18.23;6.95;;;11.60;99.90;;;;;;5049589;28;20041;-69
2022/10/16 01:21:26;;;;;;;12.23;7.45;;;11.70;99.90;;;;;;5050506;28;20049;-68
2022/10/16 01:23:59;;;;;;;14.75;7.47;;;11.70;99.90;;;;;;5049883;28;20041;-68
2022/10/16 01:26:59;;;;;;;17.50;7.90;;;11.70;99.90;;;;;;5049062;28;20055;-68
2022/10/16 01:29:29;;;;;;;24.08;9.52;;;11.70;99.90;;;;;;5042959;28;20056;-69
2022/10/16 01:32:01;;;;;;;23.17;8.93;;;11.70;99.90;;;;;;5049621;28;20087;-68
2022/10/16 01:34:38;;;;;;;16.55;8.05;;;11.70;99.90;;;;;;5050581;28;20226;-68
2022/10/16 01:37:13;;;;;;;25.95;9.38;;;11.80;99.90;;;;;;5048364;28;20560;-69
2022/10/16 01:39:41;;;;;;;16.08;8.15;;;11.70;99.90;;;;;;5049760;28;20045;-68
2022/10/16 01:42:12;;;;;;;12.05;8.02;;;11.80;99.90;;;;;;5050476;28;20056;-68
2022/10/16 01:44:39;;;;;;;11.35;8.18;;;11.70;99.90;;;;;;5049874;28;20056;-68
2022/10/16 01:47:07;;;;;;;12.82;7.45;;;11.80;99.90;;;;;;5063176;28;20044;-68
2022/10/16 01:49:36;;;;;;;13.02;8.27;;;11.80;99.90;;;;;;5048288;28;20103;-68
2022/10/16 01:52:08;;;;;;;17.02;8.80;;;11.80;99.90;;;;;;5049452;28;20049;-68
2022/10/16 01:54:36;;;;;;;22.15;8.55;;;11.80;99.90;;;;;;5048713;28;20045;-69
2022/10/16 01:57:06;;;;;;;15.35;8.45;;;11.80;99.90;;;;;;5049289;28;20041;-68
2022/10/16 01:59:35;;;;;;;15.85;8.55;;;11.80;99.90;;;;;;5050117;28;20037;-68
2022/10/16 02:02:07;;;;;;;16.92;9.05;;;11.80;99.90;;;;;;5049913;28;20048;-68
2022/10/16 02:04:38;;;;;;;13.77;9.40;;;11.80;99.90;;;;;;5055038;28;20057;-68
2022/10/16 02:07:04;;;;;;;15.63;8.13;;;11.80;99.90;;;;;;5052022;28;20406;-68
2022/10/16 02:09:32;;;;;;;22.33;10.55;;;11.90;99.90;;;;;;5049504;28;20124;-68
2022/10/16 02:12:02;;;;;;;14.35;8.88;;;11.90;99.90;;;;;;5048870;28;20132;-69
2022/10/16 02:14:29;;;;;;;17.92;9.48;;;12.00;99.90;;;;;;5047164;28;20045;-68
2022/10/16 02:16:54;;;;;;;19.58;10.48;;;11.90;99.90;;;;;;5050652;28;20611;-68
2022/10/16 02:19:21;;;;;;;14.70;8.77;;;11.90;99.90;;;;;;5048997;28;20063;-68
2022/10/16 02:21:56;;;;;;;12.95;9.55;;;12.00;99.90;;;;;;5049565;28;20041;-69
2022/10/16 02:24:27;;;;;;;20.52;12.18;;;12.00;99.90;;;;;;5048723;28;20513;-68
2022/10/16 02:27:11;;;;;;;18.77;9.63;;;11.90;99.90;;;;;;5050045;28;20052;-68
2022/10/16 02:29:47;;;;;;;15.18;9.70;;;12.00;99.90;;;;;;5048676;28;20032;-68
2022/10/16 02:32:15;;;;;;;11.18;8.13;;;11.90;99.90;;;;;;5050130;28;20067;-68
2022/10/16 02:34:43;;;;;;;17.95;8.63;;;11.90;99.90;;;;;;5045198;28;20076;-69
2022/10/16 02:37:10;;;;;;;18.10;9.07;;;12.00;99.90;;;;;;5049760;28;20041;-69
2022/10/16 02:39:37;;;;;;;24.33;9.00;;;12.00;99.90;;;;;;5049563;28;20052;-69
2022/10/16 02:42:03;;;;;;;12.35;8.35;;;12.00;99.90;;;;;;5049226;28;20065;-68
2022/10/16 02:44:29;;;;;;;19.50;9.30;;;12.00;99.90;;;;;;5047694;28;20059;-68
2022/10/16 02:46:55;;;;;;;18.42;7.80;;;12.00;99.90;;;;;;5041656;28;20044;-69
2022/10/16 02:49:20;;;;;;;14.45;9.60;;;12.00;99.90;;;;;;5043717;28;20164;-69
2022/10/16 02:51:46;;;;;;;18.20;9.00;;;12.00;99.90;;;;;;5047795;28;20399;-69
2022/10/16 02:54:12;;;;;;;15.32;8.38;;;12.00;99.90;;;;;;5049157;28;20056;-69
2022/10/16 02:56:38;;;;;;;15.23;8.77;;;12.10;99.90;;;;;;5048791;28;20055;-68
2022/10/16 02:59:04;;;;;;;15.35;7.88;;;12.10;99.90;;;;;;5048346;28;20045;-69
2022/10/16 03:01:29;;;;;;;12.75;7.55;;;12.10;99.90;;;;;;5047604;28;20037;-68
2022/10/16 03:03:55;;;;;;;11.10;8.23;;;12.20;99.90;;;;;;5049040;28;20096;-68
2022/10/16 03:06:21;;;;;;;12.88;8.43;;;12.10;99.90;;;;;;5048859;28;20045;-69
2022/10/16 03:08:47;;;;;;;10.27;7.60;;;12.10;99.90;;;;;;5048816;28;20045;-69
2022/10/16 03:11:12;;;;;;;11.20;7.57;;;12.10;99.90;;;;;;5048009;28;20044;-68
2022/10/16 03:13:38;;;;;;;14.70;8.75;;;12.10;99.90;;;;;;5048469;28;20048;-69
2022/10/16 03:16:04;;;;;;;19.83;9.27;;;12.10;99.90;;;;;;5048962;28;20401;-69
2022/10/16 03:18:29;;;;;;;12.13;8.02;;;12.20;99.90;;;;;;5047482;28;20041;-69
2022/10/16 03:20:55;;;;;;;12.65;8.50;;;12.10;99.90;;;;;;5048234;28;20065;-69
2022/10/16 03:23:21;;;;;;;10.93;8.07;;;12.20;99.90;;;;;;5047074;28;20057;-69
2022/10/16 03:25:46;;;;;;;17.33;8.63;;;12.20;99.90;;;;;;5048624;28;20450;-69
2022/10/16 03:28:12;;;;;;;15.40;7.72;;;12.20;99.90;;;;;;5048119;28;20399;-68
2022/10/16 03:30:39;;;;;;;17.13;8.48;;;12.20;99.90;;;;;;5042632;28;20052;-69
2022/10/16 03:33:05;;;;;;;15.13;8.30;;;12.20;99.90;;;;;;5048420;28;20151;-69
2022/10/16 03:35:31;;;;;;;11.23;7.95;;;12.20;99.90;;;;;;5047314;28;20101;-69
2022/10/16 03:37:57;;;;;;;14.20;7.70;;;12.20;99.90;;;;;;5048103;28;20040;-69
2022/10/16 03:40:23;;;;;;;12.45;7.45;;;12.20;99.90;;;;;;5047481;28;20067;-69
2022/10/16 03:42:49;;;;;;;10.43;7.28;;;12.30;99.90;;;;;;5046126;28;20037;-68
2022/10/16 03:45:15;;;;;;;9.50;6.32;;;12.20;99.90;;;;;;5047908;28;20036;-69
2022/10/16 03:47:41;;;;;;;12.35;6.97;;;12.30;99.90;;;;;;5045794;28;20053;-68
2022/10/16 03:50:08;;;;;;;20.63;8.02;;;12.30;99.90;;;;;;5051494;28;20505;-68
2022/10/16 03:52:34;;;;;;;10.18;7.32;;;12.30;99.90;;;;;;5047193;28;20126;-68
2022/10/16 03:54:59;;;;;;;14.65;7.20;;;12.20;99.90;;;;;;5047427;28;20095;-68
2022/10/16 03:57:25;;;;;;;12.70;6.95;;;12.20;99.90;;;;;;5046656;28;20138;-68
2022/10/16 03:59:51;;;;;;;15.90;7.53;;;12.20;99.90;;;;;;5048111;28;20049;-68
2022/10/16 04:02:17;;;;;;;12.85;6.93;;;12.20;99.90;;;;;;5047730;28;20051;-69
2022/10/16 04:04:43;;;;;;;14.48;7.25;;;12.20;99.90;;;;;;5047315;28;20508;-68
2022/10/16 04:07:08;;;;;;;12.98;8.13;;;12.20;99.90;;;;;;5046048;28;20043;-68
2022/10/16 04:09:34;;;;;;;11.18;8.43;;;12.20;99.90;;;;;;5046013;28;20044;-68
2022/10/16 04:12:00;;;;;;;15.90;10.30;;;12.20;99.90;;;;;;5030082;28;20087;-68
2022/10/16 04:14:25;;;;;;;12.00;9.48;;;12.20;99.90;;;;;;5041875;28;20033;-68
2022/10/16 04:16:51;;;;;;;7.72;6.95;;;12.20;99.90;;;;;;5039781;28;20497;-68
2022/10/16 04:19:17;;;;;;;13.25;7.82;;;12.10;99.90;;;;;;5045950;28;20049;-68
2022/10/16 04:21:42;;;;;;;14.57;7.90;;;12.10;99.90;;;;;;5051853;28;20087;-68
2022/10/16 04:24:08;;;;;;;11.70;7.35;;;12.10;99.90;;;;;;5046744;28;20049;-68
2022/10/16 04:26:34;;;;;;;8.07;6.85;;;12.20;99.90;;;;;;5045869;28;20041;-68
2022/10/16 04:28:59;;;;;;;12.02;7.32;;;12.10;99.90;;;;;;5046750;28;20040;-68
2022/10/16 04:31:25;;;;;;;16.52;7.90;;;12.10;99.90;;;;;;5047551;28;20068;-68
2022/10/16 04:33:50;;;;;;;15.35;8.55;;;12.20;99.90;;;;;;5047326;28;20055;-68
2022/10/16 04:36:16;;;;;;;13.88;7.85;;;12.00;99.90;;;;;;5043643;28;20040;-68
2022/10/16 04:38:42;;;;;;;15.82;7.90;;;12.00;99.90;;;;;;5047073;28;20033;-69
2022/10/16 04:41:08;;;;;;;25.00;8.52;;;12.10;99.90;;;;;;5062958;28;20045;-68
2022/10/16 04:43:34;;;;;;;17.10;8.68;;;12.10;99.90;;;;;;5052583;28;20049;-68
2022/10/16 04:46:00;;;;;;;17.35;9.60;;;12.00;99.90;;;;;;5045844;28;20048;-69
2022/10/16 04:48:26;;;;;;;11.80;7.88;;;12.00;99.90;;;;;;5041729;28;20050;-68
2022/10/16 04:50:51;;;;;;;16.13;8.63;;;12.10;99.90;;;;;;5041665;28;20049;-69
2022/10/16 04:53:17;;;;;;;19.08;9.57;;;12.00;99.90;;;;;;5050298;28;20120;-69
2022/10/16 04:55:43;;;;;;;13.45;9.35;;;12.10;99.90;;;;;;5047598;28;20362;-69
2022/10/16 04:58:09;;;;;;;10.98;9.30;;;12.00;99.90;;;;;;5041955;28;20044;-69
2022/10/16 05:00:35;;;;;;;17.60;10.45;;;12.10;99.90;;;;;;5052395;28;20045;-69
2022/10/16 05:03:05;;;;;;;12.70;9.55;;;12.10;99.90;;;;;;5047662;28;20098;-69
2022/10/16 05:05:31;;;;;;;14.80;10.05;;;12.10;99.90;;;;;;5046217;28;20056;-69
2022/10/16 05:07:57;;;;;;;22.88;10.23;;;12.10;99.90;;;;;;5049045;28;20096;-69
2022/10/16 05:10:22;;;;;;;21.58;10.82;;;12.10;99.90;;;;;;5044672;28;20049;-69
2022/10/16 05:12:48;;;;;;;13.63;10.65;;;12.10;99.90;;;;;;5047056;28;20045;-69
2022/10/16 05:15:14;;;;;;;13.90;10.98;;;12.10;99.90;;;;;;5043094;28;20056;-69
2022/10/16 05:17:40;;;;;;;15.65;9.80;;;12.10;99.90;;;;;;5046115;28;20048;-69
2022/10/16 05:20:06;;;;;;;15.73;10.77;;;12.10;99.90;;;;;;5050522;28;20048;-69
2022/10/16 05:22:31;;;;;;;22.40;10.57;;;12.10;99.90;;;;;;5046277;28;20087;-69
2022/10/16 05:24:57;;;;;;;21.48;9.70;;;12.20;99.90;;;;;;5045420;28;20079;-69
2022/10/16 05:27:23;;;;;;;23.52;10.15;;;12.20;99.90;;;;;;5045905;28;20052;-69
2022/10/16 05:29:49;;;;;;;15.68;10.05;;;12.10;99.90;;;;;;5047189;28;20048;-69
2022/10/16 05:32:15;;;;;;;26.85;9.80;;;12.30;99.90;;;;;;5045611;28;20049;-69
2022/10/16 05:34:41;;;;;;;10.65;8.75;;;12.20;99.90;;;;;;5056451;28;20071;-68
2022/10/16 05:37:07;;;;;;;19.00;10.23;;;12.20;99.90;;;;;;5045908;28;20068;-69
2022/10/16 05:39:33;;;;;;;13.82;9.73;;;12.20;99.90;;;;;;5040626;28;20056;-69
2022/10/16 05:41:59;;;;;;;13.70;10.73;;;12.20;99.90;;;;;;5048525;28;20247;-68
2022/10/16 05:44:24;;;;;;;14.65;9.48;;;12.20;99.90;;;;;;5048644;28;20053;-69
2022/10/16 05:46:51;;;;;;;15.98;10.32;;;12.20;99.90;;;;;;5049691;28;20449;-69
2022/10/16 05:49:17;;;;;;;14.30;9.63;;;12.20;99.90;;;;;;5049691;28;20493;-69
2022/10/16 05:51:42;;;;;;;16.33;10.23;;;12.40;99.90;;;;;;5050261;28;20064;-68
2022/10/16 05:54:08;;;;;;;16.38;10.10;;;12.20;99.90;;;;;;5050519;28;20037;-69
2022/10/16 05:56:34;;;;;;;14.65;10.55;;;12.20;99.90;;;;;;5050171;28;20098;-69
2022/10/16 05:59:00;;;;;;;12.60;10.50;;;12.30;99.90;;;;;;5049926;28;20049;-67
2022/10/16 06:01:25;;;;;;;14.77;10.93;;;12.30;99.90;;;;;;5048876;28;20081;-69
2022/10/16 06:03:52;;;;;;;16.48;10.23;;;12.30;99.90;;;;;;5048345;28;20612;-68
2022/10/16 06:06:20;;;;;;;21.38;11.02;;;12.30;99.90;;;;;;5045781;28;20048;-69
2022/10/16 06:08:47;;;;;;;18.15;10.68;;;12.30;99.90;;;;;;5046754;28;20097;-69
2022/10/16 06:11:15;;;;;;;14.02;10.13;;;12.30;99.90;;;;;;5039638;28;20046;-69
2022/10/16 06:13:42;;;;;;;15.00;10.40;;;12.30;99.90;;;;;;5048330;28;20048;-69
2022/10/16 06:16:10;;;;;;;17.35;9.73;;;12.30;99.90;;;;;;5044374;28;20049;-69
2022/10/16 06:18:35;;;;;;;11.73;9.55;;;12.30;99.90;;;;;;5037301;28;20064;-69
2022/10/16 06:21:11;;;;;;;15.23;10.05;;;12.30;99.90;;;;;;5044719;28;20056;-69
2022/10/16 06:23:37;;;;;;;15.20;9.38;;;12.30;99.90;;;;;;5045621;28;20512;-69
2022/10/16 06:26:10;;;;;;;16.90;9.07;;;12.20;99.90;;;;;;5050539;28;20088;-69
2022/10/16 06:28:36;;;;;;;14.02;8.68;;;12.30;99.90;;;;;;5039608;28;20079;-68
2022/10/16 06:31:04;;;;;;;16.75;10.05;;;12.30;99.90;;;;;;5049547;28;20073;-68
2022/10/16 06:33:29;;;;;;;14.98;9.77;;;12.30;99.90;;;;;;5049240;28;20099;-69
2022/10/16 06:36:08;;;;;;;13.48;9.02;;;12.30;99.90;;;;;;5048945;28;20044;-69
2022/10/16 06:38:34;;;;;;;16.05;7.55;;;12.30;99.90;;;;;;5046858;28;20049;-69
2022/10/16 06:41:00;;;;;;;14.90;9.60;;;12.40;99.90;;;;;;5047456;28;20484;-68
2022/10/16 06:43:27;;;;;;;8.45;7.22;;;12.30;99.90;;;;;;5044873;28;20410;-68
2022/10/16 06:45:57;;;;;;;12.77;8.18;;;12.40;99.90;;;;;;5049766;28;20067;-69
2022/10/16 06:48:23;;;;;;;14.82;8.02;;;12.40;99.90;;;;;;5048570;28;20092;-68
2022/10/16 06:51:10;;;;;;;13.20;8.25;;;12.50;99.90;;;;;;5048201;28;20045;-69
2022/10/16 06:53:37;;;;;;;12.93;8.93;;;12.50;99.90;;;;;;5046907;28;20178;-69
2022/10/16 06:56:18;;;;;;;11.52;8.32;;;12.60;99.90;;;;;;5047630;28;20048;-69
2022/10/16 06:58:45;;;;;;;13.93;8.50;;;12.50;99.90;;;;;;5037575;28;20061;-69
2022/10/16 07:01:12;;;;;;;25.90;8.30;;;12.60;99.90;;;;;;5049096;28;20053;-69
2022/10/16 07:03:39;;;;;;;10.57;7.57;;;12.90;99.90;;;;;;5043969;28;20174;-69
2022/10/16 07:06:06;;;;;;;12.82;7.15;;;12.50;99.90;;;;;;5052840;28;20556;-69
2022/10/16 07:08:33;;;;;;;14.13;8.45;;;12.50;99.90;;;;;;5048308;28;20041;-69
2022/10/16 07:11:05;;;;;;;13.02;7.85;;;12.50;99.90;;;;;;5042029;28;20056;-69
2022/10/16 07:13:33;;;;;;;12.52;7.15;;;12.70;99.90;;;;;;5043541;28;20048;-69
2022/10/16 07:16:03;;;;;;;;;;;12.60;99.90;;;;;;5043755;28;20055;-69
2022/10/16 07:18:29;;;;;;;15.48;8.23;;;12.60;99.90;;;;;;5048360;28;19925;-69
2022/10/16 07:21:06;;;;;;;11.02;7.65;;;12.60;99.90;;;;;;5048964;28;20239;-69
2022/10/16 07:23:31;;;;;;;12.38;7.75;;;12.70;99.90;;;;;;5049462;28;20076;-69
2022/10/16 07:25:57;;;;;;;16.08;8.10;;;12.70;99.90;;;;;;5048363;28;20126;-69
2022/10/16 07:28:23;;;;;;;10.45;7.15;;;12.70;99.90;;;;;;5049166;28;20489;-69
2022/10/16 07:30:48;;;;;;;12.43;6.38;;;12.80;99.90;;;;;;5041857;28;20053;-68
2022/10/16 07:33:14;;;;;;;21.15;8.07;;;12.80;99.90;;;;;;5046430;28;20049;-69
2022/10/16 07:35:54;;;;;;;14.52;7.60;;;12.70;99.90;;;;;;5046979;28;20119;-69
2022/10/16 07:38:21;;;;;;;11.50;7.57;;;12.80;99.90;;;;;;5045276;28;20047;-69
2022/10/16 07:40:47;;;;;;;15.37;7.00;;;12.90;99.90;;;;;;5048458;28;20126;-69
2022/10/16 07:43:13;;;;;;;10.38;6.45;;;12.90;99.90;;;;;;5042907;28;20048;-68
2022/10/16 07:45:48;;;;;;;11.80;6.72;;;12.90;99.90;;;;;;5046908;28;20504;-69
2022/10/16 07:48:13;;;;;;;11.85;7.55;;;13.00;99.90;;;;;;5047987;28;20094;-69
2022/10/16 07:50:39;;;;;;;10.02;6.93;;;13.00;99.90;;;;;;5044993;28;20405;-68
2022/10/16 07:53:05;;;;;;;9.98;6.70;;;13.10;99.90;;;;;;5046733;28;20060;-69
2022/10/16 07:55:31;;;;;;;10.65;6.25;;;13.10;99.90;;;;;;5044941;28;20039;-68
2022/10/16 07:57:56;;;;;;;15.05;7.93;;;13.20;99.90;;;;;;5045440;28;20041;-69
2022/10/16 08:00:22;;;;;;;13.20;7.00;;;13.20;99.90;;;;;;5041046;28;20186;-69
2022/10/16 08:02:48;;;;;;;12.45;6.93;;;13.20;99.90;;;;;;5046538;28;20056;-69
2022/10/16 08:05:13;;;;;;;12.57;7.15;;;13.30;99.90;;;;;;5050798;28;20049;-69
2022/10/16 08:07:39;;;;;;;11.77;6.57;;;13.30;99.90;;;;;;5031303;28;20037;-68
2022/10/16 08:10:05;;;;;;;13.13;6.65;;;13.40;99.90;;;;;;5040379;28;20049;-68
2022/10/16 08:12:31;;;;;;;11.02;5.95;;;13.40;99.90;;;;;;5038377;28;20049;-69
2022/10/16 08:14:57;;;;;;;11.25;6.65;;;13.50;99.90;;;;;;5047414;28;20043;-69
2022/10/16 08:17:23;;;;;;;13.82;5.80;;;13.50;99.90;;;;;;5041805;28;20048;-69
2022/10/16 08:19:49;;;;;;;10.45;6.10;;;13.60;99.90;;;;;;5045305;28;20053;-68
2022/10/16 08:22:14;;;;;;;14.20;6.53;;;13.60;99.90;;;;;;5047923;28;20055;-68
2022/10/16 08:24:40;;;;;;;13.80;7.72;;;13.70;99.90;;;;;;5045323;28;20505;-68
2022/10/16 08:27:06;;;;;;;18.95;7.50;;;13.70;99.90;;;;;;5037443;28;20063;-68
2022/10/16 08:29:32;;;;;;;18.92;6.50;;;13.70;99.90;;;;;;5047195;28;20045;-69
2022/10/16 08:31:58;;;;;;;11.90;5.82;;;13.80;99.90;;;;;;5047544;28;20110;-69
2022/10/16 08:34:24;;;;;;;14.63;5.10;;;13.80;99.90;;;;;;5046540;28;20041;-68
2022/10/16 08:36:49;;;;;;;11.52;5.65;;;14.00;99.90;;;;;;5047492;28;20052;-69
2022/10/16 08:39:16;;;;;;;14.63;4.97;;;14.00;99.90;;;;;;5045861;28;20045;-68
2022/10/16 08:42:06;;;;;;;13.32;5.03;;;14.00;99.90;;;;;;5048126;28;20047;-68
2022/10/16 08:44:58;;;;;;;11.80;4.57;;;14.10;99.90;;;;;;5045264;28;20088;-67
2022/10/16 08:47:43;;;;;;;14.48;5.20;;;14.00;99.90;;;;;;5046738;28;20053;-68
2022/10/16 08:50:16;;;;;;;6.40;3.95;;;14.00;99.90;;;;;;5047865;28;20049;-68
2022/10/16 08:52:44;;;;;;;7.80;4.55;;;14.10;99.90;;;;;;5030440;28;20045;-68
2022/10/16 08:55:36;;;;;;;5.97;4.10;;;14.10;99.90;;;;;;5033336;28;20073;-68
2022/10/16 08:58:09;;;;;;;7.47;4.63;;;14.10;99.90;;;;;;5042907;28;20049;-68
2022/10/16 09:00:35;;;;;;;6.95;4.30;;;14.20;99.90;;;;;;5047756;28;20044;-68
2022/10/16 09:03:11;;;;;;;8.07;4.93;;;14.30;99.90;;;;;;5046218;28;20413;-68
2022/10/16 09:05:55;;;;;;;13.20;5.53;;;14.20;99.90;;;;;;5046782;28;20409;-68
2022/10/16 09:08:43;;;;;;;12.02;5.13;;;14.30;99.90;;;;;;5045306;28;20881;-68
2022/10/16 09:11:26;;;;;;;15.18;5.63;;;14.40;99.90;;;;;;5031880;28;20061;-68
2022/10/16 09:14:27;;;;;;;10.57;4.80;;;14.50;99.90;;;;;;5043132;28;20052;-68
2022/10/16 09:16:58;;;;;;;9.57;5.57;;;14.70;99.90;;;;;;5049906;28;20041;-68
2022/10/16 09:19:33;;;;;;;11.15;4.88;;;14.70;99.90;;;;;;5049388;28;20092;-68
2022/10/16 09:22:09;;;;;;;10.30;5.38;;;14.90;99.90;;;;;;5044430;28;20128;-69
2022/10/16 09:24:35;;;;;;;16.00;5.55;;;15.10;99.90;;;;;;5048697;28;20061;-68
2022/10/16 09:27:01;;;;;;;13.45;5.53;;;15.20;99.90;;;;;;5045856;28;20110;-68
2022/10/16 09:29:27;;;;;;;11.18;5.78;;;15.30;99.90;;;;;;5046156;28;20396;-68
2022/10/16 09:31:57;;;;;;;14.07;7.32;;;15.50;99.90;;;;;;5056096;28;20048;-68
2022/10/16 09:34:32;;;;;;;15.90;6.22;;;15.50;99.90;;;;;;5048067;28;20049;-68
2022/10/16 09:37:01;;;;;;;12.27;6.10;;;15.70;99.90;;;;;;5045453;28;20177;-67
2022/10/16 09:39:26;;;;;;;13.25;6.28;;;15.80;99.90;;;;;;5050671;28;20045;-67
2022/10/16 09:41:53;;;;;;;27.25;6.68;;;15.80;99.90;;;;;;5046264;28;20779;-69
2022/10/16 09:44:27;;;;;;;13.32;5.55;;;15.90;99.90;;;;;;5058356;28;20044;-68
2022/10/16 09:47:26;;;;;;;24.92;5.43;;;16.00;99.90;;;;;;5052520;28;20045;-68
2022/10/16 09:50:05;;;;;;;8.60;4.88;;;16.20;99.90;;;;;;5047886;28;20057;-68
2022/10/16 09:52:32;;;;;;;29.95;7.07;;;16.30;99.90;;;;;;5050533;28;20477;-68
2022/10/16 09:55:01;;;;;;;10.43;4.45;;;16.40;99.90;;;;;;5052830;28;20664;-68
2022/10/16 09:57:27;;;;;;;18.98;6.55;;;16.50;99.90;;;;;;5039405;28;20446;-68
2022/10/16 09:59:55;;;;;;;14.02;4.28;;;16.60;99.90;;;;;;5046780;28;20057;-68
2022/10/16 10:02:50;;;;;;;19.77;5.55;;;16.70;99.90;;;;;;5045961;28;20695;-68
2022/10/16 10:05:28;;;;;;;22.00;5.60;;;16.60;99.90;;;;;;5040400;28;20060;-68
2022/10/16 10:07:56;;;;;;;;;;;16.70;99.90;;;;;;5048211;28;20591;-68
2022/10/16 10:10:30;;;;;;;15.85;5.43;;;16.80;99.90;;;;;;5049820;28;20043;-68
2022/10/16 10:12:56;;;;;;;11.93;4.80;;;16.90;99.90;;;;;;5055854;28;20521;-68
2022/10/16 10:15:23;;;;;;;18.35;5.40;;;16.80;99.90;;;;;;5049915;28;20041;-68
2022/10/16 10:17:54;;;;;;;13.55;4.10;;;16.70;99.90;;;;;;5055918;28;20094;-67
2022/10/16 10:20:29;;;;;;;16.63;4.72;;;16.70;99.90;;;;;;5048512;28;20098;-68
2022/10/16 10:22:56;;;;;;;16.90;5.05;;;16.60;99.90;;;;;;5048679;28;20049;-68
2022/10/16 10:25:38;;;;;;;17.67;6.18;;;16.50;99.90;;;;;;5038525;28;20061;-68
2022/10/16 10:28:25;;;;;;;14.82;4.38;;;16.50;99.90;;;;;;5049471;28;20469;-68
2022/10/16 10:31:10;;;;;;;20.60;5.33;;;16.60;99.90;;;;;;5048279;28;20075;-68
2022/10/16 10:33:56;;;;;;;24.23;5.05;;;16.60;99.90;;;;;;5047180;28;20422;-68
2022/10/16 10:36:31;;;;;;;39.58;5.38;;;16.80;99.90;;;;;;5044221;28;20041;-68
2022/10/16 10:38:56;;;;;;;12.65;4.18;;;16.90;99.90;;;;;;5046743;28;20045;-68
2022/10/16 10:41:47;;;;;;;33.83;5.35;;;16.90;99.90;;;;;;5045318;28;20458;-69
2022/10/16 10:44:27;;;;;;;12.23;4.70;;;17.00;99.90;;;;;;5048088;28;20037;-68
2022/10/16 10:47:00;;;;;;;13.45;4.80;;;16.90;99.90;;;;;;5053514;28;20041;-69
2022/10/16 10:49:51;;;;;;;25.55;4.93;;;16.90;99.90;;;;;;5035576;28;20485;-69
2022/10/16 10:52:59;;;;;;;27.65;6.20;;;16.90;99.90;;;;;;5046561;28;20037;-69
2022/10/16 10:55:48;;;;;;;28.33;5.25;;;17.00;99.90;;;;;;5046436;28;20041;-69
2022/10/16 10:58:29;;;;;;;16.17;4.60;;;16.90;99.90;;;;;;5047291;28;20057;-69
2022/10/16 11:00:54;;;;;;;28.70;5.47;;;17.00;99.90;;;;;;5048481;28;20115;-68
2022/10/16 11:03:20;;;;;;;20.02;5.35;;;16.90;99.90;;;;;;5045127;28;20045;-69
2022/10/16 11:05:51;;;;;;;12.50;5.15;;;16.90;99.90;;;;;;5045209;28;20041;-69
2022/10/16 11:08:33;;;;;;;13.68;4.43;;;16.90;99.90;;;;;;5060622;28;20505;-69
2022/10/16 11:11:19;;;;;;;19.20;5.68;;;16.90;99.90;;;;;;5051783;28;20049;-69
2022/10/16 11:14:04;;;;;;;22.48;5.20;;;17.00;99.90;;;;;;5044994;28;20053;-69
2022/10/16 11:16:34;;;;;;;18.70;6.45;;;17.00;99.90;;;;;;5047500;28;20137;-69
2022/10/16 11:19:04;;;;;;;26.90;5.47;;;17.00;99.90;;;;;;5040920;28;20160;-69
2022/10/16 11:21:35;;;;;;;18.02;6.43;;;17.10;99.90;;;;;;5045596;28;20509;-70
2022/10/16 11:24:08;;;;;;;20.50;6.93;;;17.00;99.90;;;;;;5048680;28;20040;-70
2022/10/16 11:26:39;;;;;;;19.88;6.53;;;16.90;99.90;;;;;;5048968;28;20060;-70
2022/10/16 11:29:13;;;;;;;20.02;5.93;;;16.80;99.90;;;;;;5046821;28;20099;-71
2022/10/16 11:31:48;;;;;;;13.32;5.93;;;16.80;99.90;;;;;;5041179;28;20355;-70
2022/10/16 11:34:38;;;;;;;10.90;4.07;;;16.80;99.90;;;;;;5045990;28;20128;-70
2022/10/16 11:37:40;;;;;;;18.80;7.25;;;16.80;99.90;;;;;;5044439;28;20425;-71
2022/10/16 11:40:37;;;;;;;21.20;7.00;;;16.90;99.90;;;;;;5040124;28;20052;-71
2022/10/16 11:43:14;;;;;;;27.80;5.97;;;16.90;99.90;;;;;;5048333;28;20277;-70
2022/10/16 11:45:45;;;;;;;21.50;6.10;;;17.10;99.90;;;;;;5047003;28;20055;-71
2022/10/16 11:48:45;;;;;;;14.55;5.65;;;17.10;99.90;;;;;;5046367;28;20061;-71
2022/10/16 11:51:20;;;;;;;17.98;4.80;;;17.30;99.90;;;;;;5046430;28;20461;-71
2022/10/16 11:54:02;;;;;;;13.98;4.85;;;17.20;99.90;;;;;;5047661;28;20573;-71
2022/10/16 11:56:29;;;;;;;18.10;4.40;;;17.10;99.90;;;;;;5047093;28;20578;-71
2022/10/16 11:59:00;;;;;;;14.48;4.38;;;17.20;99.90;;;;;;5040552;28;20040;-71
2022/10/16 12:01:35;;;;;;;15.13;5.28;;;17.30;99.90;;;;;;5039633;28;20072;-72
2022/10/16 12:04:12;;;;;;;19.83;5.18;;;17.30;99.90;;;;;;5040914;28;20587;-71
2022/10/16 12:06:49;;;;;;;17.55;5.35;;;17.50;99.90;;;;;;5036207;28;20049;-71
2022/10/16 12:09:31;;;;;;;17.90;5.15;;;17.50;99.90;;;;;;5040466;28;20053;-71
2022/10/16 12:11:57;;;;;;;10.38;4.45;;;17.60;99.90;;;;;;5041727;28;20236;-71
2022/10/16 12:14:32;;;;;;;16.13;4.72;;;18.00;99.90;;;;;;5042359;28;20052;-72
2022/10/16 12:17:24;;;;;;;18.38;4.55;;;17.90;99.90;;;;;;5049725;28;20088;-72
2022/10/16 12:20:12;;;;;;;15.77;4.53;;;17.70;99.90;;;;;;5041632;28;20049;-72
2022/10/16 12:22:48;;;;;;;22.20;5.22;;;17.80;99.90;;;;;;5039902;28;20045;-72
2022/10/16 12:25:46;;;;;;;18.35;4.78;;;17.80;99.90;;;;;;5043341;28;20059;-71
2022/10/16 12:28:14;;;;;;;15.70;4.95;;;17.60;99.90;;;;;;5045988;28;20057;-72
2022/10/16 12:30:42;;;;;;;18.00;5.90;;;17.60;99.90;;;;;;5040633;28;20041;-72
2022/10/16 12:33:30;;;;;;;16.67;5.03;;;17.40;99.90;;;;;;5038231;28;20041;-72
2022/10/16 12:35:57;;;;;;;12.73;4.13;;;17.30;99.90;;;;;;5046145;28;20056;-72
2022/10/16 12:38:32;;;;;;;20.30;5.32;;;17.30;99.90;;;;;;5045415;28;20052;-72
2022/10/16 12:41:14;;;;;;;18.58;4.28;;;17.40;99.90;;;;;;5046122;28;20175;-72
2022/10/16 12:43:47;;;;;;;21.10;5.70;;;17.60;99.90;;;;;;5046488;28;20143;-72
2022/10/16 12:46:13;;;;;;;14.27;4.82;;;17.50;99.90;;;;;;5046230;28;20056;-72
2022/10/16 12:48:43;;;;;;;13.30;4.88;;;17.80;99.90;;;;;;5046291;28;20044;-72
2022/10/16 12:51:11;;;;;;;12.65;5.22;;;17.80;99.90;;;;;;5049382;28;20163;-72
2022/10/16 12:53:37;;;;;;;18.63;4.85;;;17.90;99.90;;;;;;5049473;28;20132;-72
2022/10/16 12:56:15;;;;;;;18.52;3.50;;;17.90;99.90;;;;;;5050165;28;20127;-71